Skip to main content

NOAA/GLERL Met Station at Chicago, IL

Previous 3 Hours (2 minute increments)
See also Previous 5 Days (top of hour)
Jump down to Data
Switch to [English][Metric]
Zoom: Click and drag, Pan: shift-click and drag, Unzoom: double-click, Unzoom All




See also 1-day windrose plot


NOAA/GLERL Met Station at Chicago, IL

Previous 3 Hours (2 minute increments)
See also Previous 5 Days (top of hour only)
Jump up to Graphs
Switch to [English][Metric]
                  Wind  Wind  Wind   Air   Dew   Rel
                   Spd   Gst   Dir  Temp    Pt   Hum
YYYY-MM-DD   CST   m/s   m/s   deg     C     C     %
2017-11-21 09:20  11.2  13.2   262   7.5   0.5  61.0
2017-11-21 09:18  11.2  12.5   259   7.5   0.5  60.9
2017-11-21 09:16  11.8  13.0   260   7.5   0.4  60.4
2017-11-21 09:14  11.0  12.1   258   7.6   0.5  60.4
2017-11-21 09:12  11.8  13.0   258   7.6   0.2  59.1
2017-11-21 09:10  10.7  12.9   261   7.6   0.6  60.9
2017-11-21 09:08  11.3  12.9   258   7.7   0.3  59.4
2017-11-21 09:06  11.8  12.7   259   7.7   0.2  58.9
2017-11-21 09:04  11.2  12.6   261   7.8   0.4  59.4
2017-11-21 09:02  10.0  10.6   260   8.0   0.3  58.0
2017-11-21 09:00  10.2  11.6   259   8.0   0.2  57.8
2017-11-21 08:58   9.7  10.7   243   8.0   0.3  58.3
2017-11-21 08:56  11.0  11.7   244   8.0   0.2  57.6
2017-11-21 08:54  11.0  12.2   238   7.8   0.4  59.2
2017-11-21 08:52   9.8  10.8   239   7.7   0.6  60.5
2017-11-21 08:50  10.0  10.8   238   7.7   0.3  59.5
2017-11-21 08:48   8.7   9.9   245   7.6   0.5  60.6
2017-11-21 08:46   9.7  11.1   250   7.6   0.5  60.8
2017-11-21 08:44  10.3  11.7   250   7.6   0.4  60.0
2017-11-21 08:42  10.9  12.2   249   7.5   0.3  60.3
2017-11-21 08:40  10.6  12.0   254   7.5   0.3  60.3
2017-11-21 08:38  11.7  13.1   255   7.6   0.2  59.4
2017-11-21 08:36  12.1  13.5   253   7.6   0.2  59.5
2017-11-21 08:34  11.5  13.1   250   7.7   0.3  59.3
2017-11-21 08:32  11.1  12.6   255   7.5   0.4  60.5
2017-11-21 08:30  10.3  13.1   254   7.5   0.4  60.8
2017-11-21 08:28  11.2  11.9   247   7.5   0.3  60.0
2017-11-21 08:26  10.3  13.1   253   7.4   0.4  61.2
2017-11-21 08:24  10.9  12.5   250   7.5   0.4  60.4
2017-11-21 08:22  10.1  11.7   252   7.4   0.6  62.0
2017-11-21 08:20  11.2  13.1   243   7.5   0.4  60.8
2017-11-21 08:18  11.8  13.1   246   7.5   0.5  60.9
2017-11-21 08:16  10.8  12.6   243   7.4   0.4  60.9
2017-11-21 08:14  11.1  13.4   246   7.4   0.5  61.5
2017-11-21 08:12  10.3  12.3   246   7.4   0.4  61.0
2017-11-21 08:10   9.9  12.2   243   7.4   0.6  61.9
2017-11-21 08:08  11.2  14.7   249   7.4   0.4  61.0
2017-11-21 08:06  11.0  13.9   247   7.5   0.3  60.2
2017-11-21 08:04  11.5  12.8   247   7.5   0.4  60.4
2017-11-21 08:02  11.2  12.8   249   7.5   0.3  60.3
2017-11-21 08:00  11.3  12.9   251   7.5   0.3  60.3
2017-11-21 07:58  11.0  12.9   243   7.5   0.4  60.5
2017-11-21 07:56  11.4  12.5   246   7.5   0.4  60.5
2017-11-21 07:54  11.4  13.2   241   7.4   0.4  60.9
2017-11-21 07:52  10.6  12.7   240   7.4   0.4  61.0
2017-11-21 07:50  11.2  13.3   242   7.4   0.3  60.5
2017-11-21 07:48  11.7  14.2   236   7.4   0.4  61.2
2017-11-21 07:46  10.7  13.4   239   7.4   0.4  61.0
2017-11-21 07:44  11.2  13.1   243   7.5   0.4  60.6
2017-11-21 07:42  11.9  13.4   242   7.5   0.3  60.3
2017-11-21 07:40  12.2  14.9   237   7.6   0.4  60.3
2017-11-21 07:38  12.7  13.9   240   7.6   0.3  59.7
2017-11-21 07:36  10.5  12.0   234   7.6   0.6  61.2
2017-11-21 07:34  10.6  12.3   229   7.6   0.6  60.9
2017-11-21 07:32  10.8  12.6   231   7.6   0.6  60.9
2017-11-21 07:30   9.2  11.6   225   7.5   0.5  61.1
2017-11-21 07:28  10.7  12.2   227   7.7   0.4  59.8
2017-11-21 07:26  11.0  14.0   227   7.6   0.5  60.4
2017-11-21 07:24  10.5  14.2   228   7.6   0.3  59.9
2017-11-21 07:22  11.0  14.2   228   7.5   0.5  60.9
2017-11-21 07:20  11.2  15.9   226   7.7   0.3  59.3
2017-11-21 07:18  12.9  16.4   229   7.6   0.2  59.5
2017-11-21 07:16  10.5  12.5   230   7.6   0.6  61.1
2017-11-21 07:14  10.8  12.2   225   7.6   0.5  60.7
2017-11-21 07:12  10.7  12.7   225   7.7   0.6  60.7
2017-11-21 07:10  11.8  14.0   229   7.6   0.4  60.0
2017-11-21 07:08  10.6  12.1   229   7.6   0.3  59.8
2017-11-21 07:06  11.2  13.1   230   7.6   0.3  59.9
2017-11-21 07:04  11.2  13.3   231   7.7   0.4  59.8
2017-11-21 07:02  10.8  11.9   228   7.6   0.3  59.7
2017-11-21 07:00  10.5  12.1   231   7.6   0.3  59.8
2017-11-21 06:58  11.2  12.7   232   7.7   0.2  59.1
2017-11-21 06:56  11.3  13.8   229   7.7   0.2  58.7
2017-11-21 06:54  12.6  14.5   232   7.7   0.1  58.5
2017-11-21 06:52  11.3  15.1   233   7.7   0.5  60.0
2017-11-21 06:50  11.9  13.0   235   7.8   0.1  58.0
2017-11-21 06:48  12.9  14.9   235   7.7   0.2  58.9
2017-11-21 06:46  12.8  15.2   233   7.7   0.2  58.9
2017-11-21 06:44  12.9  16.0   236   7.7   0.2  58.7
2017-11-21 06:42  12.7  14.4   234   7.7   0.2  58.9
2017-11-21 06:40  11.8  15.1   233   7.6   0.5  60.4
2017-11-21 06:38  11.5  15.4   236   7.6   0.3  59.9
2017-11-21 06:36  11.3  14.1   234   7.6   0.3  59.9
2017-11-21 06:34  12.6  15.1   236   7.7   0.2  58.7
2017-11-21 06:32  11.2  13.6   236   7.7   0.4  59.7
2017-11-21 06:30  11.1  14.4   232   7.6   0.4  60.2
2017-11-21 06:28  12.1  15.0   233   7.7   0.2  59.1
2017-11-21 06:26  11.0  13.7   236   7.5   0.4  60.4
2017-11-21 06:24  11.0  12.2   234   7.6   0.4  60.0
2017-11-21 06:22  12.9  15.2   235   7.7   0.2  58.7
2017-11-21 06:20  12.7  14.0   235   7.7   0.1  58.5